createdAt,value
2022-10-18T00:03:25.044Z,32
2022-10-18T00:05:57.983Z,32
2022-10-18T00:08:29.500Z,36
2022-10-18T00:11:00.254Z,35
2022-10-18T00:13:35.901Z,34
2022-10-18T00:16:06.698Z,29
2022-10-18T00:18:38.028Z,36
2022-10-18T00:21:09.526Z,32
2022-10-18T00:23:40.446Z,33
2022-10-18T00:26:11.320Z,28
2022-10-18T00:28:44.304Z,35
2022-10-18T00:31:15.202Z,32
2022-10-18T00:33:52.346Z,36
2022-10-18T00:36:23.988Z,34
2022-10-18T00:38:55.205Z,35
2022-10-18T00:41:31.740Z,32
2022-10-18T00:44:08.836Z,32
2022-10-18T00:46:38.558Z,35
2022-10-18T00:49:09.753Z,33
2022-10-18T00:51:40.699Z,36
2022-10-18T00:54:11.301Z,36
2022-10-18T00:56:42.631Z,34
2022-10-18T00:59:13.285Z,32
2022-10-18T01:01:44.565Z,32
2022-10-18T01:04:15.455Z,32
2022-10-18T01:06:47.692Z,36
2022-10-18T01:09:18.529Z,38
2022-10-18T01:11:51.141Z,32
2022-10-18T01:14:22.466Z,32
2022-10-18T01:16:52.198Z,34
2022-10-18T01:19:23.215Z,36
2022-10-18T01:21:55.215Z,28
2022-10-18T01:24:26.820Z,32
2022-10-18T01:26:56.666Z,33
2022-10-18T01:29:27.918Z,32
2022-10-18T01:32:01.299Z,31
2022-10-18T01:34:32.852Z,32
2022-10-18T01:37:03.812Z,33
2022-10-18T01:39:35.421Z,32
2022-10-18T01:42:06.259Z,36
2022-10-18T01:44:37.040Z,36
2022-10-18T01:47:08.203Z,32
2022-10-18T01:49:39.704Z,36
2022-10-18T01:52:10.672Z,34
2022-10-18T01:54:43.382Z,32
2022-10-18T01:57:14.121Z,32
2022-10-18T01:59:45.392Z,32
2022-10-18T02:02:16.651Z,38
2022-10-18T02:04:47.280Z,36
2022-10-18T02:07:19.281Z,30
2022-10-18T02:09:56.649Z,33
2022-10-18T02:12:28.209Z,28
2022-10-18T02:14:58.978Z,31
2022-10-18T02:17:30.019Z,28
2022-10-18T02:20:01.179Z,32
2022-10-18T02:22:36.132Z,28
2022-10-18T02:25:07.629Z,28
2022-10-18T02:27:38.694Z,30
2022-10-18T02:30:08.140Z,32
2022-10-18T02:32:39.162Z,24
2022-10-18T02:35:10.090Z,28
2022-10-18T02:37:41.183Z,29
2022-10-18T02:40:12.898Z,28
2022-10-18T02:42:44.607Z,32
2022-10-18T02:45:22.714Z,32
2022-10-18T02:47:54.022Z,29
2022-10-18T02:50:27.795Z,27
2022-10-18T02:52:59.160Z,28
2022-10-18T02:55:30.183Z,28
2022-10-18T02:58:01.306Z,34
2022-10-18T03:00:32.305Z,27
2022-10-18T03:03:02.958Z,29
2022-10-18T03:05:34.268Z,33
2022-10-18T03:08:05.950Z,30
2022-10-18T03:10:38.887Z,29
2022-10-18T03:13:10.334Z,30
2022-10-18T03:15:43.105Z,32
2022-10-18T03:18:14.900Z,28
2022-10-18T03:20:46.945Z,28
2022-10-18T03:23:18.147Z,28
2022-10-18T03:25:50.926Z,27
2022-10-18T03:28:21.834Z,28
2022-10-18T03:30:53.244Z,24
2022-10-18T03:33:24.113Z,28
2022-10-18T03:35:56.257Z,31
2022-10-18T03:41:05.168Z,30
2022-10-18T03:43:36.409Z,29
2022-10-18T03:46:07.444Z,25
2022-10-18T03:48:38.750Z,25
2022-10-18T03:51:09.642Z,24
2022-10-18T03:53:41.363Z,31
2022-10-18T03:56:22.466Z,28
2022-10-18T03:58:53.823Z,25
2022-10-18T04:01:24.917Z,31
2022-10-18T04:03:56.139Z,24
2022-10-18T04:06:27.278Z,24
2022-10-18T04:08:59.942Z,29
2022-10-18T04:11:30.672Z,24
2022-10-18T04:14:01.406Z,28
2022-10-18T04:16:32.586Z,28
2022-10-18T04:19:03.928Z,26
2022-10-18T04:21:34.824Z,25
2022-10-18T04:24:06.250Z,25
2022-10-18T04:26:36.736Z,20
2022-10-18T04:29:07.873Z,24
2022-10-18T04:31:39.750Z,27
2022-10-18T04:34:10.943Z,23
2022-10-18T04:36:42.145Z,29
2022-10-18T04:39:13.386Z,24
2022-10-18T04:41:45.005Z,24
2022-10-18T04:44:16.112Z,23
2022-10-18T04:46:46.552Z,24
2022-10-18T04:49:16.972Z,22
2022-10-18T04:51:48.634Z,24
2022-10-18T04:54:21.830Z,23
2022-10-18T04:56:52.712Z,24
2022-10-18T04:59:23.464Z,23
2022-10-18T05:04:34.219Z,21
2022-10-18T05:07:05.334Z,21
2022-10-18T05:09:36.582Z,24
2022-10-18T05:12:10.911Z,20
2022-10-18T05:14:43.743Z,28
2022-10-18T05:17:15.602Z,28
2022-10-18T05:19:44.881Z,32
2022-10-18T05:22:16.584Z,28
2022-10-18T05:24:47.216Z,21
2022-10-18T05:27:17.985Z,24
2022-10-18T05:29:49.484Z,24
2022-10-18T05:32:22.488Z,32
2022-10-18T05:34:51.720Z,23
2022-10-18T05:37:26.049Z,25
2022-10-18T05:39:53.701Z,26
2022-10-18T05:42:25.338Z,24
2022-10-18T05:44:57.932Z,24
2022-10-18T05:47:29.146Z,23
2022-10-18T05:50:03.091Z,24
2022-10-18T05:52:34.343Z,24
2022-10-18T05:55:07.729Z,25
2022-10-18T05:57:39.043Z,24
2022-10-18T06:00:09.446Z,32
2022-10-18T06:02:43.950Z,31
2022-10-18T06:05:14.525Z,28
2022-10-18T06:07:46.029Z,28
2022-10-18T06:10:16.661Z,31
2022-10-18T06:12:47.211Z,24
2022-10-18T06:15:17.747Z,28
2022-10-18T06:17:48.898Z,28
2022-10-18T06:20:19.800Z,26
2022-10-18T06:22:50.735Z,32
2022-10-18T06:25:23.409Z,27
2022-10-18T06:27:54.651Z,28
2022-10-18T06:30:25.736Z,24
2022-10-18T06:32:56.748Z,24
2022-10-18T06:35:28.566Z,20
2022-10-18T06:37:59.920Z,20
2022-10-18T06:40:30.855Z,24
2022-10-18T06:43:16.435Z,21
2022-10-18T06:45:32.558Z,20
2022-10-18T06:48:03.220Z,16
2022-10-18T06:50:40.253Z,24
2022-10-18T06:53:10.670Z,24
2022-10-18T06:55:41.579Z,28
2022-10-18T06:58:13.147Z,24
2022-10-18T07:00:44.187Z,28
2022-10-18T07:03:21.671Z,32
2022-10-18T07:05:52.287Z,29
2022-10-18T07:08:22.918Z,28
2022-10-18T07:10:53.567Z,24
2022-10-18T07:13:38.585Z,28
2022-10-18T07:15:52.945Z,36
2022-10-18T07:18:23.828Z,36
2022-10-18T07:20:59.680Z,28
2022-10-18T07:23:30.958Z,20
2022-10-18T07:26:00.361Z,32
2022-10-18T07:28:31.652Z,26
2022-10-18T07:31:05.943Z,17
2022-10-18T07:33:35.024Z,24
2022-10-18T07:36:05.543Z,28
2022-10-18T07:38:35.775Z,32
2022-10-18T07:41:08.934Z,32
2022-10-18T07:43:39.614Z,44
2022-10-18T07:46:10.634Z,20
2022-10-18T07:48:41.130Z,27
2022-10-18T07:51:13.632Z,19
2022-10-18T07:53:44.944Z,16
2022-10-18T07:56:15.641Z,20
2022-10-18T07:58:48.079Z,16
2022-10-18T08:01:18.758Z,20
2022-10-18T08:03:49.253Z,16
2022-10-18T08:06:19.745Z,23
2022-10-18T08:08:50.133Z,24
2022-10-18T08:11:21.872Z,32
2022-10-18T08:13:53.358Z,25
2022-10-18T08:16:24.009Z,24
2022-10-18T08:18:54.337Z,20
2022-10-18T08:21:25.110Z,20
2022-10-18T08:23:55.645Z,24
2022-10-18T08:26:27.247Z,24
2022-10-18T08:29:17.870Z,24
2022-10-18T08:31:34.287Z,18
2022-10-18T08:34:04.889Z,20
2022-10-18T08:36:36.058Z,13
2022-10-18T08:39:06.463Z,16
2022-10-18T08:41:36.922Z,13
2022-10-18T08:44:07.679Z,17
2022-10-18T08:46:38.585Z,14
2022-10-18T08:49:09.281Z,12
2022-10-18T08:51:40.002Z,16
2022-10-18T08:56:47.647Z,15
2022-10-18T08:59:23.254Z,16
2022-10-18T09:01:51.319Z,12
2022-10-18T09:04:21.857Z,15
2022-10-18T09:06:52.674Z,12
2022-10-18T09:09:22.224Z,12
2022-10-18T09:11:56.849Z,8
2022-10-18T09:14:27.514Z,12
2022-10-18T09:16:58.963Z,9
2022-10-18T09:19:29.432Z,12
2022-10-18T09:22:00.099Z,12
2022-10-18T09:24:30.509Z,11
2022-10-18T09:27:01.432Z,8
2022-10-18T09:29:32.450Z,12
2022-10-18T09:32:05.234Z,8
2022-10-18T09:34:36.046Z,10
2022-10-18T09:37:07.197Z,12
2022-10-18T09:39:39.042Z,12
2022-10-18T09:42:09.873Z,12
2022-10-18T09:44:41.645Z,12
2022-10-18T09:47:16.785Z,12
2022-10-18T09:49:46.332Z,8
2022-10-18T09:52:19.454Z,9
2022-10-18T09:54:49.883Z,12
2022-10-18T09:57:19.010Z,12
2022-10-18T09:59:52.011Z,8
2022-10-18T10:02:20.911Z,12
2022-10-18T10:04:52.444Z,12
2022-10-18T10:07:22.158Z,12
2022-10-18T10:09:52.620Z,11
2022-10-18T10:12:23.584Z,11
2022-10-18T10:14:54.483Z,8
2022-10-18T10:17:25.212Z,11
2022-10-18T10:22:31.060Z,12
2022-10-18T10:25:01.995Z,16
2022-10-18T10:27:34.050Z,10
2022-10-18T10:30:06.954Z,12
2022-10-18T10:32:34.776Z,15
2022-10-18T10:35:05.654Z,13
2022-10-18T10:37:36.960Z,16
2022-10-18T10:40:26.444Z,12
2022-10-18T10:42:39.651Z,12
2022-10-18T10:45:08.809Z,12
2022-10-18T10:47:39.306Z,12
2022-10-18T10:50:08.540Z,12
2022-10-18T10:52:39.873Z,12
2022-10-18T10:55:30.675Z,12
2022-10-18T10:57:41.433Z,12
2022-10-18T11:00:13.971Z,16
2022-10-18T11:02:51.147Z,12
2022-10-18T11:05:14.979Z,13
2022-10-18T11:07:45.628Z,14
2022-10-18T11:10:16.008Z,10
2022-10-18T11:12:46.545Z,8
2022-10-18T11:15:17.320Z,12
2022-10-18T11:17:46.358Z,14
2022-10-18T11:20:16.671Z,12
2022-10-18T11:22:53.569Z,12
2022-10-18T11:25:24.134Z,8
2022-10-18T11:27:54.338Z,12
2022-10-18T11:30:24.734Z,13
2022-10-18T11:32:55.504Z,12
2022-10-18T11:35:27.149Z,12
2022-10-18T11:37:56.290Z,12
2022-10-18T11:40:26.908Z,12
2022-10-18T11:42:58.283Z,16
2022-10-18T11:47:59.763Z,13
2022-10-18T11:50:30.441Z,13
2022-10-18T11:53:00.855Z,19
2022-10-18T11:55:34.123Z,21
2022-10-18T11:58:04.342Z,16
2022-10-18T12:00:34.964Z,16
2022-10-18T12:03:05.708Z,16
2022-10-18T12:05:36.766Z,16
2022-10-18T12:08:07.552Z,16
2022-10-18T12:10:52.994Z,16
2022-10-18T12:13:08.921Z,16
2022-10-18T12:15:39.491Z,14
2022-10-18T12:18:11.185Z,12
2022-10-18T12:20:43.214Z,16
2022-10-18T12:23:16.314Z,13
2022-10-18T12:28:29.641Z,16
2022-10-18T12:31:00.385Z,23
2022-10-18T12:33:31.826Z,20
2022-10-18T12:36:02.251Z,16
2022-10-18T12:38:33.392Z,16
2022-10-18T12:41:05.260Z,9
2022-10-18T12:43:36.042Z,13
2022-10-18T12:46:12.360Z,13
2022-10-18T12:48:39.892Z,12
2022-10-18T12:51:10.125Z,12
2022-10-18T12:53:45.626Z,20
2022-10-18T12:56:20.802Z,12
2022-10-18T12:58:52.387Z,12
2022-10-18T13:01:23.131Z,18
2022-10-18T13:03:54.894Z,11
2022-10-18T13:06:25.850Z,12
2022-10-18T13:08:56.538Z,18
2022-10-18T13:11:32.015Z,12
2022-10-18T13:14:07.771Z,12
2022-10-18T13:16:38.348Z,16
2022-10-18T13:19:09.151Z,12
2022-10-18T13:21:41.063Z,15
2022-10-18T13:24:12.011Z,12
2022-10-18T13:26:42.402Z,16
2022-10-18T13:29:13.359Z,13
2022-10-18T13:31:44.324Z,12
2022-10-18T13:34:16.722Z,16
2022-10-18T13:36:47.571Z,15
2022-10-18T13:39:17.982Z,13
2022-10-18T13:41:51.611Z,16
2022-10-18T13:44:23.645Z,16
2022-10-18T13:46:58.074Z,16
2022-10-18T13:49:30.023Z,16
2022-10-18T13:52:01.108Z,16
2022-10-18T13:54:32.356Z,16
2022-10-18T13:57:03.992Z,20
2022-10-18T14:02:05.255Z,19
2022-10-18T14:04:35.987Z,12
2022-10-18T14:07:05.075Z,16
2022-10-18T14:12:14.560Z,12
2022-10-18T14:14:45.912Z,10
2022-10-18T14:17:17.984Z,15
2022-10-18T14:19:46.638Z,12
2022-10-18T14:22:22.867Z,12
2022-10-18T14:24:53.449Z,15
2022-10-18T14:27:26.761Z,12
2022-10-18T14:29:58.820Z,12
2022-10-18T14:32:29.921Z,12
2022-10-18T14:35:27.523Z,11
2022-10-18T14:37:31.740Z,12
2022-10-18T14:42:35.137Z,12
2022-10-18T14:45:06.513Z,8
2022-10-18T14:47:37.511Z,11
2022-10-18T14:55:41.839Z,16
2022-10-18T14:58:13.315Z,17
2022-10-18T15:03:23.182Z,19
2022-10-18T15:06:00.165Z,12
2022-10-18T15:08:37.300Z,16
2022-10-18T15:11:13.300Z,16
2022-10-18T15:13:43.319Z,16
2022-10-18T15:16:14.248Z,12
2022-10-18T15:18:47.562Z,15
2022-10-18T15:21:18.749Z,15
2022-10-18T15:23:50.429Z,16
2022-10-18T15:26:28.022Z,19
2022-10-18T15:29:01.411Z,16
2022-10-18T15:31:31.028Z,20
2022-10-18T15:34:00.553Z,18
2022-10-18T15:36:30.194Z,20
2022-10-18T15:39:01.402Z,21
2022-10-18T15:41:32.514Z,20
2022-10-18T15:44:04.148Z,16
2022-10-18T15:46:39.812Z,20
2022-10-18T15:51:47.889Z,20
2022-10-18T15:54:19.136Z,24
2022-10-18T15:56:50.844Z,21
2022-10-18T15:59:25.216Z,16
2022-10-18T16:01:56.287Z,18
2022-10-18T16:04:28.415Z,24
2022-10-18T16:07:05.327Z,20
2022-10-18T16:09:40.516Z,26
2022-10-18T16:12:11.701Z,32
2022-10-18T16:14:43.227Z,63
2022-10-18T16:17:14.530Z,32
2022-10-18T16:19:45.931Z,40
2022-10-18T16:22:17.137Z,32
2022-10-18T16:24:48.650Z,32
2022-10-18T16:27:20.435Z,32
2022-10-18T16:29:52.046Z,37
2022-10-18T16:32:25.452Z,36
2022-10-18T16:34:58.064Z,33
2022-10-18T16:37:29.366Z,32
2022-10-18T16:40:02.848Z,37
2022-10-18T16:42:34.590Z,36
2022-10-18T16:45:06.926Z,36
2022-10-18T16:47:37.831Z,36
2022-10-18T16:50:10.300Z,36
2022-10-18T16:52:41.158Z,38
2022-10-18T16:55:13.314Z,40
2022-10-18T16:57:44.745Z,42
2022-10-18T17:00:23.003Z,40
2022-10-18T17:02:56.474Z,40
2022-10-18T17:05:27.908Z,44
2022-10-18T17:07:58.948Z,41
2022-10-18T17:10:41.041Z,47
2022-10-18T17:13:13.030Z,45
2022-10-18T17:15:44.476Z,44
2022-10-18T17:18:17.795Z,49
2022-10-18T17:20:48.812Z,52
2022-10-18T17:23:20.037Z,51
2022-10-18T17:25:57.900Z,56
2022-10-18T17:28:23.308Z,51
2022-10-18T17:30:56.560Z,55
2022-10-18T17:33:28.062Z,49
2022-10-18T17:35:59.599Z,44
2022-10-18T17:38:31.242Z,48
2022-10-18T17:41:02.547Z,51
2022-10-18T17:43:35.797Z,44
2022-10-18T17:46:07.285Z,48
2022-10-18T17:48:41.831Z,48
2022-10-18T17:51:14.037Z,52
2022-10-18T17:53:54.115Z,50
2022-10-18T17:56:33.956Z,53
2022-10-18T17:59:04.945Z,52
2022-10-18T18:01:36.354Z,52
2022-10-18T18:04:07.500Z,57
2022-10-18T18:06:38.591Z,56
2022-10-18T18:09:09.941Z,59
2022-10-18T18:11:41.948Z,54
2022-10-18T18:14:13.667Z,53
2022-10-18T18:16:46.526Z,52
2022-10-18T18:19:17.461Z,58
2022-10-18T18:21:48.734Z,66
2022-10-18T18:24:20.305Z,68
2022-10-18T18:26:51.462Z,61
2022-10-18T18:29:22.450Z,62
2022-10-18T18:31:55.887Z,67
2022-10-18T18:34:27.587Z,57
2022-10-18T18:36:59.491Z,68
2022-10-18T18:39:31.689Z,65
2022-10-18T18:42:02.932Z,61
2022-10-18T18:44:35.849Z,63
2022-10-18T18:47:13.202Z,58
2022-10-18T18:49:46.812Z,63
2022-10-18T18:52:17.902Z,67
2022-10-18T18:54:50.332Z,59
2022-10-18T18:57:22.784Z,63
2022-10-18T18:59:57.102Z,66
2022-10-18T19:02:29.736Z,56
2022-10-18T19:05:00.949Z,53
2022-10-18T19:07:32.751Z,61
2022-10-18T19:10:02.120Z,59
2022-10-18T19:12:33.829Z,51
2022-10-18T19:15:05.502Z,53
2022-10-18T19:17:38.158Z,53
2022-10-18T19:20:09.537Z,56
2022-10-18T19:22:40.606Z,61
2022-10-18T19:25:11.349Z,54
2022-10-18T19:27:51.404Z,59
2022-10-18T19:30:25.212Z,56
2022-10-18T19:32:59.786Z,62
2022-10-18T19:35:29.392Z,64
2022-10-18T19:38:01.827Z,61
2022-10-18T19:40:34.398Z,60
2022-10-18T19:43:04.498Z,69
2022-10-18T19:45:36.906Z,81
2022-10-18T19:48:12.415Z,66
2022-10-18T19:50:40.848Z,59
2022-10-18T19:53:12.225Z,65
2022-10-18T19:55:43.969Z,56
2022-10-18T19:58:15.570Z,55
2022-10-18T20:00:51.694Z,55
2022-10-18T20:03:23.432Z,52
2022-10-18T20:05:57.079Z,52
2022-10-18T20:08:33.410Z,52
2022-10-18T20:11:10.736Z,51
2022-10-18T20:13:42.519Z,48
2022-10-18T20:16:14.418Z,52
2022-10-18T20:18:45.745Z,54
2022-10-18T20:21:16.166Z,51
2022-10-18T20:23:47.634Z,53
2022-10-18T20:26:20.378Z,49
2022-10-18T20:28:50.964Z,48
2022-10-18T20:31:24.047Z,50
2022-10-18T20:33:56.307Z,48
2022-10-18T20:36:28.110Z,54
2022-10-18T20:38:59.475Z,52
2022-10-18T20:41:31.158Z,52
2022-10-18T20:44:06.151Z,51
2022-10-18T20:46:38.400Z,50
2022-10-18T20:49:09.809Z,48
2022-10-18T20:51:41.164Z,48
2022-10-18T20:54:14.036Z,51
2022-10-18T20:56:45.598Z,48
2022-10-18T20:59:16.747Z,45
2022-10-18T21:01:49.593Z,47
2022-10-18T21:04:22.090Z,48
2022-10-18T21:06:53.622Z,48
2022-10-18T21:09:23.764Z,52
2022-10-18T21:11:56.031Z,49
2022-10-18T21:14:27.165Z,52
2022-10-18T21:16:59.490Z,53
2022-10-18T21:19:32.671Z,53
2022-10-18T21:22:04.627Z,56
2022-10-18T21:24:35.813Z,56
2022-10-18T21:27:06.884Z,52
2022-10-18T21:29:38.650Z,51
2022-10-18T21:32:08.797Z,52
2022-10-18T21:34:40.418Z,50
2022-10-18T21:37:12.956Z,49
2022-10-18T21:39:44.042Z,52
2022-10-18T21:42:17.831Z,58
2022-10-18T21:44:49.917Z,56
2022-10-18T21:47:22.210Z,56
2022-10-18T21:49:53.651Z,56
2022-10-18T21:52:28.192Z,54
2022-10-18T21:54:59.299Z,53
2022-10-18T21:57:31.910Z,55
2022-10-18T22:00:09.035Z,57
2022-10-18T22:02:40.402Z,60
2022-10-18T22:05:13.376Z,54
2022-10-18T22:07:44.726Z,55
2022-10-18T22:10:16.592Z,53
2022-10-18T22:12:47.961Z,53
2022-10-18T22:15:19.876Z,56
2022-10-18T22:17:50.067Z,54
2022-10-18T22:20:21.100Z,53
2022-10-18T22:22:51.510Z,52
2022-10-18T22:25:22.245Z,52
2022-10-18T22:27:52.712Z,49
2022-10-18T22:30:25.282Z,48
2022-10-18T22:32:56.064Z,49
2022-10-18T22:35:26.776Z,52
2022-10-18T22:37:58.122Z,52
2022-10-18T22:40:31.210Z,54
2022-10-18T22:43:01.759Z,49
2022-10-18T22:45:32.318Z,52
2022-10-18T22:48:03.781Z,60
2022-10-18T22:50:34.550Z,52
2022-10-18T22:53:05.241Z,56
2022-10-18T22:55:36.102Z,50
2022-10-18T22:58:13.188Z,56
2022-10-18T23:00:44.264Z,52
2022-10-18T23:03:14.655Z,57
2022-10-18T23:05:45.947Z,56
2022-10-18T23:08:18.623Z,52
2022-10-18T23:10:49.835Z,56
2022-10-18T23:13:20.620Z,56
2022-10-18T23:15:51.571Z,56
2022-10-18T23:18:22.502Z,54
2022-10-18T23:20:55.050Z,56
2022-10-18T23:23:25.666Z,56
2022-10-18T23:26:00.942Z,56
2022-10-18T23:28:32.790Z,56
2022-10-18T23:31:03.748Z,59
2022-10-18T23:33:33.973Z,57
2022-10-18T23:36:07.885Z,52
2022-10-18T23:38:37.722Z,52
2022-10-18T23:41:09.633Z,54
2022-10-18T23:43:40.529Z,45
2022-10-18T23:46:11.201Z,51
2022-10-18T23:48:43.386Z,50
2022-10-18T23:51:17.081Z,48
2022-10-18T23:53:48.242Z,50
2022-10-18T23:56:19.480Z,51
2022-10-18T23:58:50.570Z,52
